createdAt,value
2018-05-02T00:00:09.253Z,60.57
2018-05-02T00:00:40.492Z,60.83
2018-05-02T00:01:11.696Z,60.81
2018-05-02T00:01:42.949Z,61.05
2018-05-02T00:02:14.179Z,61.58
2018-05-02T00:02:45.394Z,61.72
2018-05-02T00:03:16.598Z,61.90
2018-05-02T00:03:47.827Z,61.74
2018-05-02T00:04:19.045Z,61.96
2018-05-02T00:04:50.256Z,62.13
2018-05-02T00:05:21.468Z,62.30
2018-05-02T00:05:52.683Z,62.20
2018-05-02T00:06:23.916Z,62.66
2018-05-02T00:06:55.124Z,62.49
2018-05-02T00:07:26.378Z,62.61
2018-05-02T00:07:57.639Z,63.24
2018-05-02T00:08:28.865Z,62.64
2018-05-02T00:09:00.070Z,62.72
2018-05-02T00:09:31.304Z,63.47
2018-05-02T00:10:02.535Z,63.10
2018-05-02T00:10:33.786Z,63.56
2018-05-02T00:11:05.032Z,63.11
2018-05-02T00:11:36.256Z,63.80
2018-05-02T00:12:07.483Z,63.68
2018-05-02T00:12:38.709Z,63.49
2018-05-02T00:13:09.931Z,63.78
2018-05-02T00:13:41.211Z,63.54
2018-05-02T00:14:12.497Z,64.21
2018-05-02T00:14:43.719Z,64.14
2018-05-02T00:15:14.968Z,63.62
2018-05-02T00:15:46.170Z,64.13
2018-05-02T00:16:17.389Z,64.35
2018-05-02T00:16:48.605Z,64.07
2018-05-02T00:17:19.817Z,63.76
2018-05-02T00:17:51.073Z,64.56
2018-05-02T00:18:22.310Z,63.87
2018-05-02T00:18:53.526Z,63.92
2018-05-02T00:19:24.740Z,64.00
2018-05-02T00:19:55.953Z,64.03
2018-05-02T00:20:27.165Z,64.08
2018-05-02T00:20:58.381Z,64.44
2018-05-02T00:21:29.591Z,65.01
2018-05-02T00:22:00.802Z,65.09
2018-05-02T00:22:32.021Z,64.91
2018-05-02T00:23:03.278Z,64.85
2018-05-02T00:23:34.521Z,65.14
2018-05-02T00:24:05.801Z,65.07
2018-05-02T00:24:37.077Z,65.08
2018-05-02T00:25:08.323Z,65.19
2018-05-02T00:25:39.515Z,65.25
2018-05-02T00:26:10.722Z,65.31
2018-05-02T00:26:41.928Z,65.44
2018-05-02T00:27:13.122Z,65.59
2018-05-02T00:27:44.329Z,65.54
2018-05-02T00:28:15.553Z,65.74
2018-05-02T00:28:46.892Z,66.18
2018-05-02T00:29:18.184Z,65.94
2018-05-02T00:29:49.392Z,66.14
2018-05-02T00:30:20.645Z,66.14
2018-05-02T00:30:51.845Z,66.31
2018-05-02T00:31:23.132Z,66.44
2018-05-02T00:31:54.350Z,66.32
2018-05-02T00:32:25.572Z,66.54
2018-05-02T00:32:56.785Z,66.55
2018-05-02T00:33:28.006Z,66.44
2018-05-02T00:33:59.224Z,66.69
2018-05-02T00:34:30.471Z,66.48
2018-05-02T00:35:01.691Z,66.51
2018-05-02T00:35:32.901Z,66.43
2018-05-02T00:36:04.150Z,66.49
2018-05-02T00:36:35.378Z,66.35
2018-05-02T00:37:06.569Z,66.46
2018-05-02T00:37:37.789Z,66.45
2018-05-02T00:38:09.147Z,66.38
2018-05-02T00:38:40.367Z,66.49
2018-05-02T00:39:11.598Z,66.81
2018-05-02T00:39:42.813Z,66.97
2018-05-02T00:40:14.021Z,66.75
2018-05-02T00:40:45.239Z,66.96
2018-05-02T00:41:16.470Z,66.80
2018-05-02T00:41:47.685Z,66.65
2018-05-02T00:42:18.878Z,66.76
2018-05-02T00:42:50.080Z,67.21
2018-05-02T00:43:21.320Z,67.29
2018-05-02T00:43:52.533Z,66.64
2018-05-02T00:44:23.744Z,66.62
2018-05-02T00:44:54.959Z,66.68
2018-05-02T00:45:26.201Z,66.56
2018-05-02T00:45:57.413Z,66.59
2018-05-02T00:46:28.668Z,67.16
2018-05-02T00:46:59.880Z,66.89
2018-05-02T00:47:31.094Z,66.61
2018-05-02T00:48:02.306Z,66.54
2018-05-02T00:48:33.515Z,66.61
2018-05-02T00:49:04.792Z,66.62
2018-05-02T00:49:36.012Z,66.57
2018-05-02T00:50:07.217Z,66.55
2018-05-02T00:50:38.477Z,66.57
2018-05-02T00:51:09.687Z,66.50
2018-05-02T00:51:40.887Z,66.53
2018-05-02T00:52:12.097Z,66.63
2018-05-02T00:52:43.309Z,66.83
2018-05-02T00:53:14.561Z,66.61
2018-05-02T00:53:45.784Z,66.64
2018-05-02T00:54:17.063Z,66.63
2018-05-02T00:54:48.250Z,67.30
2018-05-02T00:55:19.453Z,67.12
2018-05-02T00:55:50.675Z,67.07
2018-05-02T00:56:21.884Z,67.13
2018-05-02T00:56:53.081Z,67.19
2018-05-02T00:57:24.285Z,67.19
2018-05-02T00:57:55.482Z,67.75
2018-05-02T00:58:26.689Z,67.99
2018-05-02T00:58:57.909Z,67.45
2018-05-02T00:59:29.157Z,67.52
2018-05-02T01:00:00.421Z,67.43
2018-05-02T01:00:31.645Z,67.59
2018-05-02T01:01:02.853Z,67.69
2018-05-02T01:01:34.091Z,68.11
2018-05-02T01:02:05.312Z,68.02
2018-05-02T01:02:36.526Z,68.59
2018-05-02T01:03:07.736Z,68.17
2018-05-02T01:03:38.942Z,68.11
2018-05-02T01:04:10.219Z,68.24
2018-05-02T01:04:41.432Z,68.52
2018-05-02T01:05:12.614Z,68.60
2018-05-02T01:05:43.868Z,68.32
2018-05-02T01:06:15.077Z,68.28
2018-05-02T01:06:46.292Z,68.49
2018-05-02T01:07:17.487Z,68.70
2018-05-02T01:07:48.702Z,68.58
2018-05-02T01:08:19.953Z,68.60
2018-05-02T01:08:51.205Z,68.64
2018-05-02T01:09:22.430Z,68.65
2018-05-02T01:09:53.650Z,69.27
2018-05-02T01:10:24.921Z,68.78
2018-05-02T01:10:56.164Z,68.67
2018-05-02T01:11:27.375Z,68.62
2018-05-02T01:11:58.634Z,68.78
2018-05-02T01:12:29.849Z,68.95
2018-05-02T01:13:01.068Z,68.90
2018-05-02T01:13:32.281Z,68.76
2018-05-02T01:14:03.505Z,69.01
2018-05-02T01:14:34.717Z,68.95
2018-05-02T01:15:05.972Z,68.78
2018-05-02T01:15:37.194Z,68.81
2018-05-02T01:16:08.436Z,68.95
2018-05-02T01:16:39.658Z,69.01
2018-05-02T01:17:10.909Z,68.98
2018-05-02T01:17:42.113Z,69.27
2018-05-02T01:18:13.352Z,69.51
2018-05-02T01:18:44.556Z,69.60
2018-05-02T01:19:15.819Z,69.28
2018-05-02T01:19:47.012Z,69.10
2018-05-02T01:20:18.269Z,69.04
2018-05-02T01:20:49.528Z,69.14
2018-05-02T01:21:20.743Z,69.17
2018-05-02T01:21:52.009Z,69.04
2018-05-02T01:22:23.224Z,68.99
2018-05-02T01:22:54.444Z,68.88
2018-05-02T01:23:25.669Z,68.87
2018-05-02T01:23:56.877Z,68.84
2018-05-02T01:24:28.211Z,68.86
2018-05-02T01:24:59.433Z,68.79
2018-05-02T01:25:30.646Z,68.78
2018-05-02T01:26:01.900Z,68.86
2018-05-02T01:26:33.113Z,69.10
2018-05-02T01:27:04.337Z,69.25
2018-05-02T01:27:35.556Z,69.24
2018-05-02T01:28:06.824Z,69.07
2018-05-02T01:28:38.077Z,68.98
2018-05-02T01:29:09.359Z,68.98
2018-05-02T01:29:40.564Z,69.00
2018-05-02T01:30:11.779Z,68.98
2018-05-02T01:30:42.996Z,69.04
2018-05-02T01:31:14.213Z,69.07
2018-05-02T01:31:45.462Z,69.28
2018-05-02T01:32:16.686Z,69.28
2018-05-02T01:32:47.902Z,69.38
2018-05-02T01:33:19.120Z,69.52
2018-05-02T01:33:50.324Z,69.62
2018-05-02T01:34:21.591Z,69.66
2018-05-02T01:34:52.976Z,69.64
2018-05-02T01:35:24.198Z,69.64
2018-05-02T01:35:55.424Z,69.59
2018-05-02T01:36:26.662Z,69.60
2018-05-02T01:36:57.878Z,69.59
2018-05-02T01:37:29.133Z,69.58
2018-05-02T01:38:00.332Z,69.62
2018-05-02T01:38:31.542Z,69.66
2018-05-02T01:39:02.752Z,69.62
2018-05-02T01:39:33.974Z,69.66
2018-05-02T01:40:05.203Z,69.65
2018-05-02T01:40:36.413Z,69.84
2018-05-02T01:41:07.625Z,69.73
2018-05-02T01:41:38.846Z,69.64
2018-05-02T01:42:10.067Z,69.67
2018-05-02T01:42:41.316Z,69.76
2018-05-02T01:43:12.506Z,69.80
2018-05-02T01:43:43.717Z,69.88
2018-05-02T01:44:14.982Z,69.91
2018-05-02T01:44:46.186Z,70.02
2018-05-02T01:45:17.401Z,70.00
2018-05-02T01:45:48.619Z,70.03
2018-05-02T01:46:19.825Z,70.19
2018-05-02T01:46:51.029Z,70.09
2018-05-02T01:47:22.290Z,70.09
2018-05-02T01:47:53.495Z,70.09
2018-05-02T01:48:24.693Z,70.20
2018-05-02T01:48:55.915Z,70.33
2018-05-02T01:49:27.159Z,70.28
2018-05-02T01:49:58.349Z,70.18
2018-05-02T01:50:29.567Z,70.16
2018-05-02T01:51:00.781Z,70.27
2018-05-02T01:51:32.003Z,70.48
2018-05-02T01:52:03.242Z,70.26
2018-05-02T01:52:34.481Z,70.21
2018-05-02T01:53:05.693Z,70.14
2018-05-02T01:53:36.901Z,70.32
2018-05-02T01:54:08.108Z,70.51
2018-05-02T01:54:39.362Z,70.46
2018-05-02T01:55:10.613Z,70.55
2018-05-02T01:55:41.857Z,70.68
2018-05-02T01:56:13.068Z,70.64
2018-05-02T01:56:44.297Z,70.69
2018-05-02T01:57:15.523Z,70.56
2018-05-02T01:57:46.752Z,70.47
2018-05-02T01:58:17.962Z,70.50
2018-05-02T01:58:49.184Z,70.66
2018-05-02T01:59:20.421Z,70.69
2018-05-02T01:59:51.682Z,70.75
2018-05-02T02:00:22.918Z,70.94
2018-05-02T02:00:54.132Z,70.89
2018-05-02T02:01:25.359Z,70.91
2018-05-02T02:01:56.567Z,70.83
2018-05-02T02:02:27.852Z,70.81
2018-05-02T02:02:59.102Z,71.30
2018-05-02T02:03:30.314Z,71.19
2018-05-02T02:04:01.529Z,70.99
2018-05-02T02:04:32.737Z,70.97
2018-05-02T02:05:03.967Z,70.96
2018-05-02T02:05:35.176Z,70.94
2018-05-02T02:06:06.385Z,70.93
2018-05-02T02:06:37.594Z,70.99
2018-05-02T02:07:08.857Z,70.88
2018-05-02T02:07:40.085Z,70.95
2018-05-02T02:08:11.296Z,70.97
2018-05-02T02:08:42.548Z,71.13
2018-05-02T02:09:13.762Z,71.24
2018-05-02T02:09:44.976Z,71.37
2018-05-02T02:10:16.195Z,71.60
2018-05-02T02:10:47.410Z,71.77
2018-05-02T02:11:18.628Z,71.86
2018-05-02T02:11:49.893Z,71.90
2018-05-02T02:12:21.149Z,72.04
2018-05-02T02:12:52.361Z,72.45
2018-05-02T02:13:23.579Z,72.14
2018-05-02T02:13:54.792Z,72.04
2018-05-02T02:14:25.993Z,72.19
2018-05-02T02:14:57.209Z,72.20
2018-05-02T02:15:28.481Z,72.39
2018-05-02T02:15:59.692Z,72.31
2018-05-02T02:16:30.896Z,72.42
2018-05-02T02:17:02.140Z,72.50
2018-05-02T02:17:33.345Z,72.53
2018-05-02T02:18:04.552Z,72.54
2018-05-02T02:18:35.772Z,72.56
2018-05-02T02:19:06.980Z,72.52
2018-05-02T02:19:38.199Z,72.74
2018-05-02T02:20:09.414Z,72.71
2018-05-02T02:20:40.644Z,72.67
2018-05-02T02:21:11.868Z,73.02
2018-05-02T02:21:43.125Z,72.75
2018-05-02T02:22:14.360Z,72.71
2018-05-02T02:22:45.611Z,72.65
2018-05-02T02:23:16.831Z,72.66
2018-05-02T02:23:48.041Z,72.68
2018-05-02T02:24:19.264Z,72.69
2018-05-02T02:24:50.491Z,72.68
2018-05-02T02:25:21.713Z,72.64
2018-05-02T02:25:52.932Z,72.67
2018-05-02T02:26:24.141Z,72.82
2018-05-02T02:26:55.398Z,72.92
2018-05-02T02:27:26.600Z,72.87
2018-05-02T02:27:57.805Z,72.83
2018-05-02T02:28:29.011Z,72.85
2018-05-02T02:29:00.237Z,72.92
2018-05-02T02:29:31.460Z,73.05
2018-05-02T02:30:02.663Z,72.97
2018-05-02T02:30:33.882Z,73.05
2018-05-02T02:31:05.089Z,73.32
2018-05-02T02:31:36.297Z,73.23
2018-05-02T02:32:07.545Z,73.04
2018-05-02T02:32:38.752Z,73.01
2018-05-02T02:33:09.968Z,72.94
2018-05-02T02:33:41.198Z,72.89
2018-05-02T02:34:12.450Z,72.85
2018-05-02T02:34:43.652Z,72.86
2018-05-02T02:35:14.858Z,72.94
2018-05-02T02:35:46.076Z,73.06
2018-05-02T02:36:17.281Z,73.56
2018-05-02T02:36:48.488Z,73.38
2018-05-02T02:37:19.697Z,73.26
2018-05-02T02:37:50.918Z,73.25
2018-05-02T02:38:22.160Z,73.32
2018-05-02T02:38:53.407Z,73.33
2018-05-02T02:39:24.606Z,73.27
2018-05-02T02:39:55.859Z,73.16
2018-05-02T02:40:27.073Z,73.25
2018-05-02T02:40:58.258Z,73.29
2018-05-02T02:41:29.468Z,73.58
2018-05-02T02:42:00.677Z,73.52
2018-05-02T02:42:31.896Z,73.48
2018-05-02T02:43:03.114Z,73.47
2018-05-02T02:43:34.374Z,73.44
2018-05-02T02:44:05.604Z,73.82
2018-05-02T02:44:36.829Z,73.62
2018-05-02T02:45:08.036Z,73.73
2018-05-02T02:45:39.242Z,73.68
2018-05-02T02:46:10.501Z,73.64
2018-05-02T02:46:41.710Z,73.59
2018-05-02T02:47:12.920Z,73.62
2018-05-02T02:47:44.135Z,73.62
2018-05-02T02:48:15.894Z,73.74
2018-05-02T02:48:47.102Z,73.77
2018-05-02T02:49:18.302Z,73.83
2018-05-02T02:49:49.573Z,73.89
2018-05-02T02:50:20.801Z,73.97
2018-05-02T02:50:52.043Z,73.99
2018-05-02T02:51:23.294Z,74.08
2018-05-02T02:51:54.508Z,74.07
2018-05-02T02:52:25.722Z,74.10
2018-05-02T02:52:56.967Z,74.11
2018-05-02T02:53:28.172Z,74.20
2018-05-02T02:53:59.381Z,74.39
2018-05-02T02:54:30.599Z,74.65
2018-05-02T02:55:01.862Z,74.56
2018-05-02T02:55:33.085Z,74.73
2018-05-02T02:56:04.321Z,74.79
2018-05-02T02:56:35.545Z,74.95
2018-05-02T02:57:06.761Z,74.97
2018-05-02T02:57:38.016Z,75.04
2018-05-02T02:58:09.237Z,75.08
2018-05-02T02:58:40.493Z,75.08
2018-05-02T02:59:11.741Z,75.06
2018-05-02T02:59:42.965Z,75.02
2018-05-02T03:00:14.191Z,75.07
2018-05-02T03:00:45.400Z,75.14
2018-05-02T03:01:16.632Z,75.33
2018-05-02T03:01:47.884Z,75.56
2018-05-02T03:02:19.089Z,75.62
2018-05-02T03:02:50.332Z,75.64
2018-05-02T03:03:21.549Z,75.58
2018-05-02T03:03:52.791Z,75.58
2018-05-02T03:04:24.015Z,75.60
2018-05-02T03:04:55.224Z,75.57
2018-05-02T03:05:26.446Z,75.58
2018-05-02T03:05:57.662Z,75.57
2018-05-02T03:06:28.869Z,75.60
2018-05-02T03:07:00.151Z,75.73
2018-05-02T03:07:31.413Z,75.77
2018-05-02T03:08:02.626Z,75.80
2018-05-02T03:08:33.855Z,75.82
2018-05-02T03:09:05.078Z,75.84
2018-05-02T03:09:36.293Z,75.94
2018-05-02T03:10:07.487Z,76.01
2018-05-02T03:10:38.716Z,75.99
2018-05-02T03:11:09.935Z,75.90
2018-05-02T03:11:41.200Z,75.97
2018-05-02T03:12:12.403Z,76.10
2018-05-02T03:12:43.672Z,76.02
2018-05-02T03:13:14.867Z,76.08
2018-05-02T03:13:46.073Z,76.03
2018-05-02T03:14:17.345Z,75.96
2018-05-02T03:14:48.552Z,76.05
2018-05-02T03:15:19.771Z,76.02
2018-05-02T03:15:50.987Z,76.02
2018-05-02T03:16:22.182Z,75.98
2018-05-02T03:16:53.436Z,75.94
2018-05-02T03:17:24.659Z,75.91
2018-05-02T03:17:56.017Z,75.90
2018-05-02T03:18:27.222Z,75.99
2018-05-02T03:18:58.433Z,76.04
2018-05-02T03:19:29.652Z,76.19
2018-05-02T03:20:00.921Z,76.28
2018-05-02T03:20:32.126Z,76.18
2018-05-02T03:21:03.334Z,76.17
2018-05-02T03:21:34.556Z,76.18
2018-05-02T03:22:05.764Z,76.13
2018-05-02T03:22:36.976Z,76.01
2018-05-02T03:23:08.233Z,75.94
2018-05-02T03:23:39.440Z,75.97
2018-05-02T03:24:10.649Z,76.16
2018-05-02T03:24:41.873Z,76.54
2018-05-02T03:25:13.093Z,76.65
2018-05-02T03:25:44.297Z,76.64
2018-05-02T03:26:15.494Z,76.51
2018-05-02T03:26:46.708Z,76.39
2018-05-02T03:27:17.916Z,76.46
2018-05-02T03:27:49.110Z,77.31
2018-05-02T03:28:20.358Z,76.99
2018-05-02T03:28:51.583Z,76.79
2018-05-02T03:29:22.787Z,76.28
2018-05-02T03:29:54.008Z,75.97
2018-05-02T03:30:25.261Z,75.63
2018-05-02T03:30:56.512Z,75.26
2018-05-02T03:31:27.721Z,75.05
2018-05-02T03:31:58.952Z,74.61
2018-05-02T03:32:30.161Z,74.28
2018-05-02T03:33:01.369Z,73.89
2018-05-02T03:33:32.571Z,73.59
2018-05-02T03:34:03.831Z,73.09
2018-05-02T03:34:35.042Z,72.89
2018-05-02T03:35:06.293Z,72.62
2018-05-02T03:35:37.514Z,72.42
2018-05-02T03:36:08.723Z,72.28
2018-05-02T03:36:39.933Z,72.14
2018-05-02T03:37:11.165Z,71.79
2018-05-02T03:37:42.375Z,71.35
2018-05-02T03:38:13.616Z,70.80
2018-05-02T03:38:44.852Z,70.17
2018-05-02T03:39:16.056Z,69.59
2018-05-02T03:39:47.264Z,69.32
2018-05-02T03:40:18.473Z,69.15
2018-05-02T03:40:49.683Z,69.11
2018-05-02T03:41:20.900Z,68.90
2018-05-02T03:41:52.122Z,68.58
2018-05-02T03:42:23.348Z,68.28
2018-05-02T03:42:54.608Z,68.10
2018-05-02T03:43:25.820Z,68.12
2018-05-02T03:43:57.066Z,68.41
2018-05-02T03:44:28.285Z,68.09
2018-05-02T03:44:59.507Z,68.01
2018-05-02T03:45:30.713Z,67.77
2018-05-02T03:46:01.957Z,67.46
2018-05-02T03:46:33.232Z,66.78
2018-05-02T03:47:04.445Z,66.30
2018-05-02T03:47:35.683Z,65.66
2018-05-02T03:48:06.897Z,65.50
2018-05-02T03:48:39.112Z,65.20
2018-05-02T03:49:10.363Z,65.03
2018-05-02T03:49:41.668Z,64.79
2018-05-02T03:50:12.885Z,64.39
2018-05-02T03:50:44.146Z,64.05
2018-05-02T03:51:15.349Z,63.50
2018-05-02T03:51:46.567Z,63.17
2018-05-02T03:52:17.788Z,62.62
2018-05-02T03:52:48.990Z,62.39
2018-05-02T03:53:20.206Z,62.02
2018-05-02T03:53:51.409Z,61.55
2018-05-02T03:54:22.659Z,61.12
2018-05-02T03:54:53.899Z,60.62
2018-05-02T03:55:25.110Z,60.29
2018-05-02T03:55:56.322Z,60.04
2018-05-02T03:56:27.545Z,59.84
2018-05-02T03:56:58.800Z,60.01
2018-05-02T03:57:30.009Z,60.25
2018-05-02T03:58:01.239Z,60.12
2018-05-02T03:58:32.449Z,60.17
2018-05-02T03:59:03.661Z,60.08
2018-05-02T03:59:34.873Z,59.86
2018-05-02T04:00:06.093Z,59.74
2018-05-02T04:00:37.310Z,59.71
2018-05-02T04:01:08.534Z,59.55
2018-05-02T04:01:40.420Z,59.46
2018-05-02T04:02:11.689Z,59.33
2018-05-02T04:02:42.906Z,59.16
2018-05-02T04:03:14.116Z,58.91
2018-05-02T04:03:45.336Z,58.56
2018-05-02T04:04:16.568Z,58.27
2018-05-02T04:04:47.778Z,58.27
2018-05-02T04:05:18.993Z,58.33
2018-05-02T04:05:50.215Z,58.78
2018-05-02T04:06:21.421Z,59.06
2018-05-02T04:06:52.640Z,59.31
2018-05-02T04:07:23.883Z,59.85
2018-05-02T04:07:55.097Z,59.82
2018-05-02T04:08:26.362Z,59.78
2018-05-02T04:08:57.625Z,59.73
2018-05-02T04:09:28.831Z,59.46
2018-05-02T04:10:00.054Z,59.24
2018-05-02T04:10:31.260Z,58.78
2018-05-02T04:11:02.468Z,58.31
2018-05-02T04:11:33.676Z,58.26
2018-05-02T04:12:04.899Z,58.08
2018-05-02T04:12:36.139Z,57.88
2018-05-02T04:13:07.413Z,57.85
2018-05-02T04:13:38.627Z,57.62
2018-05-02T04:14:09.832Z,57.40
2018-05-02T04:14:41.041Z,57.25
2018-05-02T04:15:12.273Z,57.38
2018-05-02T04:15:43.478Z,57.83
2018-05-02T04:16:14.693Z,58.01
2018-05-02T04:16:45.899Z,58.20
2018-05-02T04:17:17.140Z,58.35
2018-05-02T04:17:48.357Z,58.47
2018-05-02T04:18:19.623Z,58.50
2018-05-02T04:18:50.847Z,58.76
2018-05-02T04:19:22.061Z,58.41
2018-05-02T04:19:53.266Z,58.15
2018-05-02T04:20:24.498Z,57.62
2018-05-02T04:20:55.702Z,56.75
2018-05-02T04:21:26.909Z,56.14
2018-05-02T04:21:58.121Z,55.54
2018-05-02T04:22:29.329Z,55.02
2018-05-02T04:23:00.554Z,54.54
2018-05-02T04:23:31.806Z,53.94
2018-05-02T04:24:03.036Z,53.55
2018-05-02T04:24:34.250Z,53.20
2018-05-02T04:25:05.461Z,52.73
2018-05-02T04:25:36.695Z,52.23
2018-05-02T04:26:07.927Z,51.98
2018-05-02T04:26:39.128Z,51.47
2018-05-02T04:27:10.361Z,50.75
2018-05-02T04:27:41.579Z,50.15
2018-05-02T04:28:12.859Z,49.61
2018-05-02T04:28:44.110Z,49.12
2018-05-02T04:29:15.320Z,49.32
2018-05-02T04:29:46.528Z,48.54
2018-05-02T04:30:17.752Z,48.34
2018-05-02T04:30:48.978Z,47.70
2018-05-02T04:31:20.189Z,47.18
2018-05-02T04:31:51.404Z,46.64
2018-05-02T04:32:22.613Z,46.14
2018-05-02T04:32:53.841Z,46.02
2018-05-02T04:33:25.100Z,45.75
2018-05-02T04:33:56.352Z,45.47
2018-05-02T04:34:27.595Z,45.22
2018-05-02T04:34:58.849Z,45.08
2018-05-02T04:35:30.073Z,45.00
2018-05-02T04:36:01.287Z,44.98
2018-05-02T04:36:32.500Z,45.23
2018-05-02T04:37:03.922Z,44.83
2018-05-02T04:37:35.124Z,44.23
2018-05-02T04:38:06.336Z,44.06
2018-05-02T04:38:37.550Z,44.30
2018-05-02T04:39:08.790Z,44.19
2018-05-02T04:39:40.064Z,44.12
2018-05-02T04:40:11.280Z,44.00
2018-05-02T04:40:42.492Z,43.63
2018-05-02T04:41:13.701Z,43.18
2018-05-02T04:41:44.908Z,42.84
2018-05-02T04:42:16.113Z,42.65
2018-05-02T04:42:47.324Z,42.55
2018-05-02T04:43:18.536Z,42.23
2018-05-02T04:43:49.748Z,42.31
2018-05-02T04:44:20.964Z,42.47
2018-05-02T04:44:52.229Z,42.22
2018-05-02T04:45:23.452Z,42.15
2018-05-02T04:45:54.709Z,42.07
2018-05-02T04:46:25.935Z,41.83
2018-05-02T04:46:57.152Z,41.34
2018-05-02T04:47:28.402Z,40.94
2018-05-02T04:47:59.616Z,40.48
2018-05-02T04:48:30.889Z,40.07
2018-05-02T04:49:02.101Z,39.42
2018-05-02T04:49:33.317Z,39.46
2018-05-02T04:50:04.541Z,39.40
2018-05-02T04:50:35.756Z,39.30
2018-05-02T04:51:07.139Z,39.11
2018-05-02T04:51:38.366Z,39.07
2018-05-02T04:52:09.603Z,39.00
2018-05-02T04:52:40.920Z,38.93
2018-05-02T04:53:12.091Z,38.77
2018-05-02T04:53:43.362Z,38.73
2018-05-02T04:54:14.579Z,38.24
2018-05-02T04:54:45.803Z,37.91
2018-05-02T04:55:17.078Z,37.89
2018-05-02T04:55:48.292Z,37.36
2018-05-02T04:56:19.607Z,37.12
2018-05-02T04:56:50.819Z,37.10
2018-05-02T04:57:22.090Z,36.94
2018-05-02T04:57:53.300Z,36.98
2018-05-02T04:58:24.533Z,37.17
2018-05-02T04:58:55.749Z,37.55
2018-05-02T04:59:26.978Z,37.71
2018-05-02T04:59:58.202Z,37.97
2018-05-02T05:00:29.428Z,38.35
2018-05-02T05:01:00.623Z,38.69
2018-05-02T05:01:31.941Z,38.45
2018-05-02T05:02:03.138Z,38.25
2018-05-02T05:02:34.365Z,38.10
2018-05-02T05:03:05.569Z,37.80
2018-05-02T05:03:36.787Z,37.65
2018-05-02T05:04:07.981Z,37.85
2018-05-02T05:04:39.189Z,37.96
2018-05-02T05:05:10.396Z,37.98
2018-05-02T05:05:41.624Z,38.07
2018-05-02T05:06:12.839Z,37.63
2018-05-02T05:06:44.166Z,37.52
2018-05-02T05:07:15.362Z,37.19
2018-05-02T05:07:46.571Z,37.17
2018-05-02T05:08:17.777Z,37.10
2018-05-02T05:08:49.005Z,36.87
2018-05-02T05:09:20.272Z,36.98
2018-05-02T05:09:51.476Z,36.94
2018-05-02T05:10:22.685Z,36.58
2018-05-02T05:10:53.953Z,35.90
2018-05-02T05:11:25.190Z,35.52
2018-05-02T05:11:56.448Z,35.44
2018-05-02T05:12:27.708Z,35.38
2018-05-02T05:12:58.916Z,35.82
2018-05-02T05:13:30.125Z,35.56
2018-05-02T05:14:01.337Z,35.64
2018-05-02T05:14:32.541Z,35.73
2018-05-02T05:15:03.766Z,35.67
2018-05-02T05:15:34.977Z,35.72
2018-05-02T05:16:06.195Z,36.07
2018-05-02T05:16:37.414Z,36.20
2018-05-02T05:17:08.660Z,36.26
2018-05-02T05:17:39.876Z,36.95
2018-05-02T05:18:11.117Z,37.07
2018-05-02T05:18:42.325Z,37.25
2018-05-02T05:19:13.589Z,37.15
2018-05-02T05:19:44.809Z,37.22
2018-05-02T05:20:16.012Z,37.38
2018-05-02T05:20:47.279Z,37.64
2018-05-02T05:21:18.518Z,38.03
2018-05-02T05:21:49.745Z,37.98
2018-05-02T05:22:20.979Z,38.07
2018-05-02T05:22:52.201Z,38.03
2018-05-02T05:23:23.404Z,38.12
2018-05-02T05:23:54.610Z,38.22
2018-05-02T05:24:25.829Z,38.45
2018-05-02T05:24:57.042Z,38.47
2018-05-02T05:25:28.257Z,38.37
2018-05-02T05:25:59.514Z,38.52
2018-05-02T05:26:30.729Z,38.62
2018-05-02T05:27:01.942Z,38.66
2018-05-02T05:27:33.145Z,38.71
2018-05-02T05:28:04.369Z,38.87
2018-05-02T05:28:35.593Z,38.81
2018-05-02T05:29:06.811Z,38.83
2018-05-02T05:29:38.038Z,38.77
2018-05-02T05:30:09.251Z,38.65
2018-05-02T05:30:40.469Z,39.08
2018-05-02T05:31:11.681Z,39.17
2018-05-02T05:31:42.898Z,39.41
2018-05-02T05:32:14.107Z,39.71
2018-05-02T05:32:45.318Z,40.00
2018-05-02T05:33:16.565Z,40.12
2018-05-02T05:33:47.822Z,39.62
2018-05-02T05:34:19.045Z,39.42
2018-05-02T05:34:50.257Z,40.03
2018-05-02T05:35:21.484Z,39.70
2018-05-02T05:35:52.725Z,39.58
2018-05-02T05:36:23.942Z,39.54
2018-05-02T05:36:55.158Z,39.57
2018-05-02T05:37:26.398Z,39.74
2018-05-02T05:37:57.605Z,39.67
2018-05-02T05:38:28.823Z,39.54
2018-05-02T05:39:00.073Z,39.51
2018-05-02T05:39:31.266Z,39.90
2018-05-02T05:40:02.468Z,40.19
2018-05-02T05:40:33.677Z,40.46
2018-05-02T05:41:04.932Z,40.76
2018-05-02T05:41:36.206Z,41.04
2018-05-02T05:42:07.421Z,41.23
2018-05-02T05:42:38.640Z,41.74
2018-05-02T05:43:09.905Z,41.27
2018-05-02T05:43:41.157Z,41.23
2018-05-02T05:44:12.398Z,41.13
2018-05-02T05:44:43.609Z,40.87
2018-05-02T05:45:14.816Z,41.16
2018-05-02T05:45:46.028Z,41.31
2018-05-02T05:46:17.255Z,41.30
2018-05-02T05:46:48.465Z,41.25
2018-05-02T05:47:19.745Z,41.72
2018-05-02T05:47:50.952Z,41.93
2018-05-02T05:48:22.167Z,42.13
2018-05-02T05:48:53.413Z,42.79
2018-05-02T05:49:24.621Z,43.07
2018-05-02T05:49:55.838Z,43.08
2018-05-02T05:50:27.070Z,43.33
2018-05-02T05:50:58.268Z,43.20
2018-05-02T05:51:29.465Z,43.11
2018-05-02T05:52:00.687Z,43.19
2018-05-02T05:52:31.983Z,43.57
2018-05-02T05:53:03.313Z,43.64
2018-05-02T05:53:34.545Z,43.50
2018-05-02T05:54:05.865Z,43.39
2018-05-02T05:54:37.151Z,43.41
2018-05-02T05:55:08.535Z,43.73
2018-05-02T05:55:39.754Z,43.90
2018-05-02T05:56:10.991Z,44.16
2018-05-02T05:56:42.273Z,44.25
2018-05-02T05:57:13.530Z,44.54
2018-05-02T05:57:44.824Z,44.92
2018-05-02T05:58:16.089Z,44.93
2018-05-02T05:58:47.322Z,44.93
2018-05-02T05:59:18.552Z,45.18
2018-05-02T05:59:49.819Z,45.66
2018-05-02T06:00:21.226Z,45.28
2018-05-02T06:00:52.473Z,45.29
2018-05-02T06:01:23.692Z,45.67
2018-05-02T06:01:54.894Z,46.07
2018-05-02T06:02:26.145Z,46.38
2018-05-02T06:02:57.380Z,46.68
2018-05-02T06:03:28.623Z,47.14
2018-05-02T06:03:59.979Z,47.53
2018-05-02T06:04:31.240Z,47.63
2018-05-02T06:05:02.510Z,48.13
2018-05-02T06:05:33.736Z,48.37
2018-05-02T06:06:04.960Z,48.53
2018-05-02T06:06:36.169Z,48.63
2018-05-02T06:07:07.376Z,48.69
2018-05-02T06:07:38.616Z,48.84
2018-05-02T06:08:11.148Z,48.86
2018-05-02T06:08:42.485Z,48.76
2018-05-02T06:09:13.849Z,48.71
2018-05-02T06:09:45.104Z,48.55
2018-05-02T06:10:16.336Z,48.89
2018-05-02T06:10:47.591Z,49.17
2018-05-02T06:11:18.878Z,49.35
2018-05-02T06:11:50.112Z,49.61
2018-05-02T06:12:21.346Z,49.39
2018-05-02T06:12:52.624Z,49.35
2018-05-02T06:13:23.934Z,49.60
2018-05-02T06:13:55.232Z,49.81
2018-05-02T06:14:26.454Z,49.79
2018-05-02T06:14:57.711Z,49.92
2018-05-02T06:15:28.981Z,50.14
2018-05-02T06:16:00.267Z,49.90
2018-05-02T06:16:31.551Z,49.92
2018-05-02T06:17:02.865Z,50.18
2018-05-02T06:17:34.198Z,50.26
2018-05-02T06:18:05.430Z,50.48
2018-05-02T06:18:36.670Z,50.37
2018-05-02T06:19:07.900Z,50.73
2018-05-02T06:19:39.149Z,50.66
2018-05-02T06:20:10.436Z,50.07
2018-05-02T06:20:41.650Z,50.21
2018-05-02T06:21:12.897Z,50.29
2018-05-02T06:21:44.108Z,50.45
2018-05-02T06:22:15.321Z,50.60
2018-05-02T06:22:46.637Z,50.70
2018-05-02T06:23:18.011Z,50.34
2018-05-02T06:23:49.243Z,50.10
2018-05-02T06:24:20.446Z,49.85
2018-05-02T06:24:51.670Z,49.30
2018-05-02T06:25:22.902Z,49.23
2018-05-02T06:25:54.130Z,49.35
2018-05-02T06:26:25.380Z,49.42
2018-05-02T06:26:56.601Z,49.38
2018-05-02T06:27:27.844Z,49.97
2018-05-02T06:27:59.061Z,49.41
2018-05-02T06:28:30.273Z,49.66
2018-05-02T06:29:01.489Z,50.10
2018-05-02T06:29:32.714Z,50.05
2018-05-02T06:30:04.031Z,50.31
2018-05-02T06:30:35.292Z,50.57
2018-05-02T06:31:07.768Z,50.46
2018-05-02T06:31:39.024Z,50.55
2018-05-02T06:32:10.245Z,50.44
2018-05-02T06:32:41.498Z,50.71
2018-05-02T06:33:12.706Z,50.82
2018-05-02T06:33:43.951Z,51.11
2018-05-02T06:34:15.169Z,51.51
2018-05-02T06:34:46.385Z,51.50
2018-05-02T06:35:17.670Z,51.81
2018-05-02T06:35:48.920Z,51.97
2018-05-02T06:36:20.129Z,52.14
2018-05-02T06:36:51.342Z,52.54
2018-05-02T06:37:23.498Z,53.10
2018-05-02T06:37:54.872Z,53.70
2018-05-02T06:38:26.110Z,54.08
2018-05-02T06:38:57.329Z,54.18
2018-05-02T06:39:28.545Z,54.06
2018-05-02T06:39:59.833Z,53.77
2018-05-02T06:40:31.174Z,54.06
2018-05-02T06:41:02.395Z,54.26
2018-05-02T06:41:35.022Z,54.46
2018-05-02T06:42:06.354Z,54.73